sensor_id;sensor_type;location;lat;lon;timestamp;P1;durP1;ratioP1;P2;durP2;ratioP2
4001;SDS011;2015;48.670;9.060;2023-02-25T00:01:12;13.03;;;9.00;;
4001;SDS011;2015;48.670;9.060;2023-02-25T00:03:44;15.13;;;9.20;;
4001;SDS011;2015;48.670;9.060;2023-02-25T00:06:16;15.73;;;8.63;;
4001;SDS011;2015;48.670;9.060;2023-02-25T00:08:49;16.77;;;9.77;;
4001;SDS011;2015;48.670;9.060;2023-02-25T00:11:22;11.43;;;8.90;;
4001;SDS011;2015;48.670;9.060;2023-02-25T00:13:55;15.75;;;9.52;;
4001;SDS011;2015;48.670;9.060;2023-02-25T00:16:27;12.03;;;8.70;;
4001;SDS011;2015;48.670;9.060;2023-02-25T00:18:59;16.80;;;10.40;;
4001;SDS011;2015;48.670;9.060;2023-02-25T00:21:31;12.03;;;8.30;;
4001;SDS011;2015;48.670;9.060;2023-02-25T00:24:03;9.03;;;8.13;;
4001;SDS011;2015;48.670;9.060;2023-02-25T00:26:47;11.70;;;10.50;;
4001;SDS011;2015;48.670;9.060;2023-02-25T00:29:18;16.83;;;9.37;;
4001;SDS011;2015;48.670;9.060;2023-02-25T00:31:50;12.33;;;8.90;;
4001;SDS011;2015;48.670;9.060;2023-02-25T00:34:22;10.80;;;8.80;;
4001;SDS011;2015;48.670;9.060;2023-02-25T00:36:54;15.10;;;9.90;;
4001;SDS011;2015;48.670;9.060;2023-02-25T00:39:26;15.30;;;9.30;;
4001;SDS011;2015;48.670;9.060;2023-02-25T00:42:13;15.80;;;9.83;;
4001;SDS011;2015;48.670;9.060;2023-02-25T00:44:48;12.43;;;9.00;;
4001;SDS011;2015;48.670;9.060;2023-02-25T00:47:20;9.30;;;7.70;;
4001;SDS011;2015;48.670;9.060;2023-02-25T00:49:52;10.90;;;8.17;;
4001;SDS011;2015;48.670;9.060;2023-02-25T00:52:24;9.70;;;8.67;;
4001;SDS011;2015;48.670;9.060;2023-02-25T00:54:56;12.90;;;9.70;;
4001;SDS011;2015;48.670;9.060;2023-02-25T00:57:28;14.70;;;10.87;;
4001;SDS011;2015;48.670;9.060;2023-02-25T01:00:00;11.63;;;8.87;;
4001;SDS011;2015;48.670;9.060;2023-02-25T01:02:32;13.00;;;8.87;;
4001;SDS011;2015;48.670;9.060;2023-02-25T01:05:04;15.57;;;8.80;;
4001;SDS011;2015;48.670;9.060;2023-02-25T01:07:36;15.40;;;9.30;;
4001;SDS011;2015;48.670;9.060;2023-02-25T01:10:08;12.20;;;10.00;;
4001;SDS011;2015;48.670;9.060;2023-02-25T01:12:41;11.20;;;9.40;;
4001;SDS011;2015;48.670;9.060;2023-02-25T01:15:13;10.27;;;8.53;;
4001;SDS011;2015;48.670;9.060;2023-02-25T01:17:45;10.90;;;9.57;;
4001;SDS011;2015;48.670;9.060;2023-02-25T01:20:16;11.23;;;9.60;;
4001;SDS011;2015;48.670;9.060;2023-02-25T01:22:50;19.13;;;9.40;;
4001;SDS011;2015;48.670;9.060;2023-02-25T01:25:22;18.50;;;11.00;;
4001;SDS011;2015;48.670;9.060;2023-02-25T01:27:56;16.53;;;9.83;;
4001;SDS011;2015;48.670;9.060;2023-02-25T01:30:28;14.90;;;10.33;;
4001;SDS011;2015;48.670;9.060;2023-02-25T01:32:59;9.40;;;8.40;;
4001;SDS011;2015;48.670;9.060;2023-02-25T01:35:31;13.00;;;11.00;;
4001;SDS011;2015;48.670;9.060;2023-02-25T01:38:06;12.37;;;9.83;;
4001;SDS011;2015;48.670;9.060;2023-02-25T01:40:38;13.87;;;9.40;;
4001;SDS011;2015;48.670;9.060;2023-02-25T01:43:14;17.63;;;10.75;;
4001;SDS011;2015;48.670;9.060;2023-02-25T01:45:46;15.33;;;10.93;;
4001;SDS011;2015;48.670;9.060;2023-02-25T01:48:20;10.13;;;8.63;;
4001;SDS011;2015;48.670;9.060;2023-02-25T01:50:54;13.63;;;10.93;;
4001;SDS011;2015;48.670;9.060;2023-02-25T01:53:34;16.50;;;10.60;;
4001;SDS011;2015;48.670;9.060;2023-02-25T01:56:15;14.03;;;10.27;;
4001;SDS011;2015;48.670;9.060;2023-02-25T01:58:51;11.60;;;9.63;;
4001;SDS011;2015;48.670;9.060;2023-02-25T02:01:24;18.90;;;9.60;;
4001;SDS011;2015;48.670;9.060;2023-02-25T02:04:00;15.20;;;11.10;;
4001;SDS011;2015;48.670;9.060;2023-02-25T02:06:38;12.43;;;9.80;;
4001;SDS011;2015;48.670;9.060;2023-02-25T02:09:13;14.13;;;8.20;;
4001;SDS011;2015;48.670;9.060;2023-02-25T02:11:49;12.73;;;9.87;;
4001;SDS011;2015;48.670;9.060;2023-02-25T02:14:22;15.17;;;9.47;;
4001;SDS011;2015;48.670;9.060;2023-02-25T02:17:36;9.47;;;8.57;;
4001;SDS011;2015;48.670;9.060;2023-02-25T02:20:04;12.00;;;9.40;;
4001;SDS011;2015;48.670;9.060;2023-02-25T02:34:35;17.00;;;8.90;;
4001;SDS011;2015;48.670;9.060;2023-02-25T02:46:04;11.00;;;8.60;;
4001;SDS011;2015;48.670;9.060;2023-02-25T02:55:02;13.43;;;8.33;;
4001;SDS011;2015;48.670;9.060;2023-02-25T02:57:54;11.10;;;9.00;;
4001;SDS011;2015;48.670;9.060;2023-02-25T03:00:32;12.50;;;8.73;;
4001;SDS011;2015;48.670;9.060;2023-02-25T03:03:20;16.63;;;9.30;;
4001;SDS011;2015;48.670;9.060;2023-02-25T03:06:25;17.40;;;8.73;;
4001;SDS011;2015;48.670;9.060;2023-02-25T03:09:05;11.63;;;7.57;;
4001;SDS011;2015;48.670;9.060;2023-02-25T03:11:38;16.00;;;8.90;;
4001;SDS011;2015;48.670;9.060;2023-02-25T03:14:10;12.40;;;8.40;;
4001;SDS011;2015;48.670;9.060;2023-02-25T03:16:47;17.63;;;8.40;;
4001;SDS011;2015;48.670;9.060;2023-02-25T03:22:21;17.13;;;8.60;;
4001;SDS011;2015;48.670;9.060;2023-02-25T03:25:03;9.60;;;8.47;;
4001;SDS011;2015;48.670;9.060;2023-02-25T03:27:41;12.97;;;8.60;;
4001;SDS011;2015;48.670;9.060;2023-02-25T03:30:17;13.60;;;7.30;;
4001;SDS011;2015;48.670;9.060;2023-02-25T03:35:43;11.50;;;8.27;;
4001;SDS011;2015;48.670;9.060;2023-02-25T03:38:18;15.23;;;8.20;;
4001;SDS011;2015;48.670;9.060;2023-02-25T03:40:53;13.10;;;7.53;;
4001;SDS011;2015;48.670;9.060;2023-02-25T03:43:29;10.40;;;7.27;;
4001;SDS011;2015;48.670;9.060;2023-02-25T03:46:04;12.03;;;8.70;;
4001;SDS011;2015;48.670;9.060;2023-02-25T03:48:37;19.90;;;8.40;;
4001;SDS011;2015;48.670;9.060;2023-02-25T03:51:10;12.07;;;8.47;;
4001;SDS011;2015;48.670;9.060;2023-02-25T03:53:45;9.33;;;7.67;;
4001;SDS011;2015;48.670;9.060;2023-02-25T03:56:17;11.03;;;8.23;;
4001;SDS011;2015;48.670;9.060;2023-02-25T03:58:48;13.50;;;7.27;;
4001;SDS011;2015;48.670;9.060;2023-02-25T04:01:22;13.27;;;8.03;;
4001;SDS011;2015;48.670;9.060;2023-02-25T04:03:59;10.43;;;7.40;;
4001;SDS011;2015;48.670;9.060;2023-02-25T04:06:31;16.73;;;8.60;;
4001;SDS011;2015;48.670;9.060;2023-02-25T04:09:04;12.30;;;7.50;;
4001;SDS011;2015;48.670;9.060;2023-02-25T04:11:36;10.07;;;7.23;;
4001;SDS011;2015;48.670;9.060;2023-02-25T04:14:08;12.77;;;6.90;;
4001;SDS011;2015;48.670;9.060;2023-02-25T04:16:40;11.57;;;6.80;;
4001;SDS011;2015;48.670;9.060;2023-02-25T04:19:12;17.10;;;7.30;;
4001;SDS011;2015;48.670;9.060;2023-02-25T04:21:44;9.93;;;7.10;;
4001;SDS011;2015;48.670;9.060;2023-02-25T04:24:15;13.53;;;7.07;;
4001;SDS011;2015;48.670;9.060;2023-02-25T04:26:47;9.20;;;7.07;;
4001;SDS011;2015;48.670;9.060;2023-02-25T04:29:19;14.40;;;7.00;;
4001;SDS011;2015;48.670;9.060;2023-02-25T04:31:51;10.30;;;7.32;;
4001;SDS011;2015;48.670;9.060;2023-02-25T04:34:23;8.50;;;6.93;;
4001;SDS011;2015;48.670;9.060;2023-02-25T04:36:55;7.80;;;6.80;;
4001;SDS011;2015;48.670;9.060;2023-02-25T04:39:27;7.77;;;5.40;;
4001;SDS011;2015;48.670;9.060;2023-02-25T04:41:58;9.60;;;5.90;;
4001;SDS011;2015;48.670;9.060;2023-02-25T04:44:30;16.93;;;6.50;;
4001;SDS011;2015;48.670;9.060;2023-02-25T04:47:02;4.97;;;4.57;;
4001;SDS011;2015;48.670;9.060;2023-02-25T04:49:34;4.67;;;4.03;;
4001;SDS011;2015;48.670;9.060;2023-02-25T04:52:15;7.13;;;3.50;;
4001;SDS011;2015;48.670;9.060;2023-02-25T04:54:46;3.30;;;3.00;;
4001;SDS011;2015;48.670;9.060;2023-02-25T04:57:18;6.40;;;3.53;;
4001;SDS011;2015;48.670;9.060;2023-02-25T04:59:50;4.07;;;3.07;;
4001;SDS011;2015;48.670;9.060;2023-02-25T05:02:22;2.73;;;2.53;;
4001;SDS011;2015;48.670;9.060;2023-02-25T05:04:54;2.93;;;2.73;;
4001;SDS011;2015;48.670;9.060;2023-02-25T05:07:26;6.90;;;3.20;;
4001;SDS011;2015;48.670;9.060;2023-02-25T05:09:57;4.00;;;3.60;;
4001;SDS011;2015;48.670;9.060;2023-02-25T05:12:29;3.93;;;2.43;;
4001;SDS011;2015;48.670;9.060;2023-02-25T05:15:01;4.73;;;2.70;;
4001;SDS011;2015;48.670;9.060;2023-02-25T05:17:35;4.60;;;3.10;;
4001;SDS011;2015;48.670;9.060;2023-02-25T05:20:07;4.70;;;2.50;;
4001;SDS011;2015;48.670;9.060;2023-02-25T05:22:42;4.93;;;2.80;;
4001;SDS011;2015;48.670;9.060;2023-02-25T05:25:14;3.90;;;3.17;;
4001;SDS011;2015;48.670;9.060;2023-02-25T05:27:46;3.50;;;3.27;;
4001;SDS011;2015;48.670;9.060;2023-02-25T05:30:17;2.80;;;2.20;;
4001;SDS011;2015;48.670;9.060;2023-02-25T05:32:50;2.80;;;2.40;;
4001;SDS011;2015;48.670;9.060;2023-02-25T05:35:22;6.23;;;3.00;;
4001;SDS011;2015;48.670;9.060;2023-02-25T05:37:53;4.10;;;2.33;;
4001;SDS011;2015;48.670;9.060;2023-02-25T05:40:26;3.50;;;2.40;;
4001;SDS011;2015;48.670;9.060;2023-02-25T05:42:57;4.63;;;2.70;;
4001;SDS011;2015;48.670;9.060;2023-02-25T05:45:29;6.67;;;2.57;;
4001;SDS011;2015;48.670;9.060;2023-02-25T05:48:01;4.10;;;2.73;;
4001;SDS011;2015;48.670;9.060;2023-02-25T05:50:33;5.13;;;2.83;;
4001;SDS011;2015;48.670;9.060;2023-02-25T05:53:11;6.00;;;3.57;;
4001;SDS011;2015;48.670;9.060;2023-02-25T05:55:43;6.10;;;2.83;;
4001;SDS011;2015;48.670;9.060;2023-02-25T05:58:15;4.53;;;3.30;;
4001;SDS011;2015;48.670;9.060;2023-02-25T06:00:47;4.37;;;3.00;;
4001;SDS011;2015;48.670;9.060;2023-02-25T06:03:19;3.37;;;2.57;;
4001;SDS011;2015;48.670;9.060;2023-02-25T06:05:51;6.20;;;3.47;;
4001;SDS011;2015;48.670;9.060;2023-02-25T06:08:23;3.77;;;3.07;;
4001;SDS011;2015;48.670;9.060;2023-02-25T06:10:55;5.97;;;3.40;;
4001;SDS011;2015;48.670;9.060;2023-02-25T06:13:27;3.00;;;2.80;;
4001;SDS011;2015;48.670;9.060;2023-02-25T06:16:01;4.90;;;3.80;;
4001;SDS011;2015;48.670;9.060;2023-02-25T06:18:35;2.93;;;2.73;;
4001;SDS011;2015;48.670;9.060;2023-02-25T06:21:08;5.17;;;3.27;;
4001;SDS011;2015;48.670;9.060;2023-02-25T06:23:43;3.67;;;3.37;;
4001;SDS011;2015;48.670;9.060;2023-02-25T06:26:15;3.13;;;2.93;;
4001;SDS011;2015;48.670;9.060;2023-02-25T06:28:47;3.87;;;2.30;;
4001;SDS011;2015;48.670;9.060;2023-02-25T06:31:20;3.10;;;2.90;;
4001;SDS011;2015;48.670;9.060;2023-02-25T06:33:53;3.37;;;2.17;;
4001;SDS011;2015;48.670;9.060;2023-02-25T06:36:25;2.60;;;2.40;;
4001;SDS011;2015;48.670;9.060;2023-02-25T06:38:58;2.90;;;2.70;;
4001;SDS011;2015;48.670;9.060;2023-02-25T06:41:30;2.27;;;2.00;;
4001;SDS011;2015;48.670;9.060;2023-02-25T06:44:01;3.57;;;2.67;;
4001;SDS011;2015;48.670;9.060;2023-02-25T06:46:34;13.37;;;3.80;;
4001;SDS011;2015;48.670;9.060;2023-02-25T06:49:06;5.93;;;2.67;;
4001;SDS011;2015;48.670;9.060;2023-02-25T06:51:37;3.70;;;2.20;;
4001;SDS011;2015;48.670;9.060;2023-02-25T06:54:09;2.87;;;2.63;;
4001;SDS011;2015;48.670;9.060;2023-02-25T06:56:41;6.43;;;2.83;;
4001;SDS011;2015;48.670;9.060;2023-02-25T06:59:13;3.97;;;2.97;;
4001;SDS011;2015;48.670;9.060;2023-02-25T07:01:45;2.90;;;2.60;;
4001;SDS011;2015;48.670;9.060;2023-02-25T07:04:17;5.73;;;3.00;;
4001;SDS011;2015;48.670;9.060;2023-02-25T07:06:49;2.50;;;2.30;;
4001;SDS011;2015;48.670;9.060;2023-02-25T07:09:21;6.50;;;2.80;;
4001;SDS011;2015;48.670;9.060;2023-02-25T07:11:53;4.70;;;3.40;;
4001;SDS011;2015;48.670;9.060;2023-02-25T07:14:24;5.20;;;2.57;;
4001;SDS011;2015;48.670;9.060;2023-02-25T07:16:56;3.30;;;2.30;;
4001;SDS011;2015;48.670;9.060;2023-02-25T07:19:28;3.23;;;2.97;;
4001;SDS011;2015;48.670;9.060;2023-02-25T07:22:00;3.60;;;2.50;;
4001;SDS011;2015;48.670;9.060;2023-02-25T07:24:32;4.33;;;2.60;;
4001;SDS011;2015;48.670;9.060;2023-02-25T07:27:04;5.30;;;2.50;;
4001;SDS011;2015;48.670;9.060;2023-02-25T07:29:35;8.00;;;3.10;;
4001;SDS011;2015;48.670;9.060;2023-02-25T07:32:07;3.53;;;3.13;;
4001;SDS011;2015;48.670;9.060;2023-02-25T07:34:39;8.90;;;3.67;;
4001;SDS011;2015;48.670;9.060;2023-02-25T07:37:11;8.17;;;2.30;;
4001;SDS011;2015;48.670;9.060;2023-02-25T07:39:43;6.90;;;3.47;;
4001;SDS011;2015;48.670;9.060;2023-02-25T07:42:17;5.50;;;4.93;;
4001;SDS011;2015;48.670;9.060;2023-02-25T07:44:49;3.33;;;2.33;;
4001;SDS011;2015;48.670;9.060;2023-02-25T07:47:21;5.47;;;2.97;;
4001;SDS011;2015;48.670;9.060;2023-02-25T07:49:53;5.93;;;2.80;;
4001;SDS011;2015;48.670;9.060;2023-02-25T07:52:25;3.93;;;2.40;;
4001;SDS011;2015;48.670;9.060;2023-02-25T07:54:57;2.63;;;2.43;;
4001;SDS011;2015;48.670;9.060;2023-02-25T07:57:29;2.23;;;1.87;;
4001;SDS011;2015;48.670;9.060;2023-02-25T08:00:01;1.87;;;1.70;;
4001;SDS011;2015;48.670;9.060;2023-02-25T08:02:33;6.20;;;2.17;;
4001;SDS011;2015;48.670;9.060;2023-02-25T08:05:05;7.40;;;2.40;;
4001;SDS011;2015;48.670;9.060;2023-02-25T08:07:37;2.10;;;2.00;;
4001;SDS011;2015;48.670;9.060;2023-02-25T08:10:09;4.00;;;2.00;;
4001;SDS011;2015;48.670;9.060;2023-02-25T08:12:41;2.97;;;2.30;;
4001;SDS011;2015;48.670;9.060;2023-02-25T08:15:13;2.50;;;2.30;;
4001;SDS011;2015;48.670;9.060;2023-02-25T08:17:45;4.70;;;2.50;;
4001;SDS011;2015;48.670;9.060;2023-02-25T08:20:19;3.67;;;2.37;;
4001;SDS011;2015;48.670;9.060;2023-02-25T08:22:51;3.17;;;2.47;;
4001;SDS011;2015;48.670;9.060;2023-02-25T08:25:23;5.20;;;2.33;;
4001;SDS011;2015;48.670;9.060;2023-02-25T08:27:55;2.90;;;2.70;;
4001;SDS011;2015;48.670;9.060;2023-02-25T08:30:28;5.10;;;2.00;;
4001;SDS011;2015;48.670;9.060;2023-02-25T08:33:00;5.40;;;2.83;;
4001;SDS011;2015;48.670;9.060;2023-02-25T08:35:31;3.60;;;2.90;;
4001;SDS011;2015;48.670;9.060;2023-02-25T08:38:03;2.47;;;2.27;;
4001;SDS011;2015;48.670;9.060;2023-02-25T08:40:35;4.07;;;2.57;;
4001;SDS011;2015;48.670;9.060;2023-02-25T08:43:07;4.20;;;2.43;;
4001;SDS011;2015;48.670;9.060;2023-02-25T08:45:40;4.97;;;3.00;;
4001;SDS011;2015;48.670;9.060;2023-02-25T08:48:12;3.47;;;2.60;;
4001;SDS011;2015;48.670;9.060;2023-02-25T08:50:44;2.80;;;2.60;;
4001;SDS011;2015;48.670;9.060;2023-02-25T08:53:16;3.13;;;2.87;;
4001;SDS011;2015;48.670;9.060;2023-02-25T08:55:49;7.43;;;2.60;;
4001;SDS011;2015;48.670;9.060;2023-02-25T08:58:23;4.17;;;2.77;;
4001;SDS011;2015;48.670;9.060;2023-02-25T09:00:55;2.83;;;2.53;;
4001;SDS011;2015;48.670;9.060;2023-02-25T09:03:27;3.30;;;3.00;;
4001;SDS011;2015;48.670;9.060;2023-02-25T09:05:59;3.63;;;2.53;;
4001;SDS011;2015;48.670;9.060;2023-02-25T09:08:31;8.83;;;3.00;;
4001;SDS011;2015;48.670;9.060;2023-02-25T09:11:04;5.87;;;2.70;;
4001;SDS011;2015;48.670;9.060;2023-02-25T09:13:36;6.33;;;2.33;;
4001;SDS011;2015;48.670;9.060;2023-02-25T09:16:08;6.77;;;3.27;;
4001;SDS011;2015;48.670;9.060;2023-02-25T09:18:40;12.13;;;3.20;;
4001;SDS011;2015;48.670;9.060;2023-02-25T09:21:12;2.53;;;2.30;;
4001;SDS011;2015;48.670;9.060;2023-02-25T09:23:44;3.60;;;2.13;;
4001;SDS011;2015;48.670;9.060;2023-02-25T09:26:17;6.97;;;2.90;;
4001;SDS011;2015;48.670;9.060;2023-02-25T09:28:50;3.07;;;2.57;;
4001;SDS011;2015;48.670;9.060;2023-02-25T09:31:22;4.75;;;2.70;;
4001;SDS011;2015;48.670;9.060;2023-02-25T09:33:54;4.67;;;3.73;;
4001;SDS011;2015;48.670;9.060;2023-02-25T09:36:26;4.50;;;2.43;;
4001;SDS011;2015;48.670;9.060;2023-02-25T09:38:58;2.57;;;1.87;;
4001;SDS011;2015;48.670;9.060;2023-02-25T09:41:52;4.30;;;2.77;;
4001;SDS011;2015;48.670;9.060;2023-02-25T09:44:47;4.53;;;2.63;;
4001;SDS011;2015;48.670;9.060;2023-02-25T09:47:22;3.20;;;2.90;;
4001;SDS011;2015;48.670;9.060;2023-02-25T09:49:58;4.13;;;2.90;;
4001;SDS011;2015;48.670;9.060;2023-02-25T09:52:40;4.20;;;2.57;;
4001;SDS011;2015;48.670;9.060;2023-02-25T09:55:22;6.17;;;3.73;;
4001;SDS011;2015;48.670;9.060;2023-02-25T10:00:49;3.33;;;3.03;;
4001;SDS011;2015;48.670;9.060;2023-02-25T10:11:36;2.20;;;2.10;;
4001;SDS011;2015;48.670;9.060;2023-02-25T10:14:31;4.17;;;2.10;;
4001;SDS011;2015;48.670;9.060;2023-02-25T10:25:55;1.50;;;1.40;;
4001;SDS011;2015;48.670;9.060;2023-02-25T10:28:32;2.93;;;2.83;;
4001;SDS011;2015;48.670;9.060;2023-02-25T10:33:49;2.03;;;1.70;;
4001;SDS011;2015;48.670;9.060;2023-02-25T10:36:31;2.73;;;1.93;;
4001;SDS011;2015;48.670;9.060;2023-02-25T10:39:07;2.13;;;2.03;;
4001;SDS011;2015;48.670;9.060;2023-02-25T10:41:41;1.70;;;1.60;;
4001;SDS011;2015;48.670;9.060;2023-02-25T10:44:12;2.60;;;1.67;;
4001;SDS011;2015;48.670;9.060;2023-02-25T10:46:57;2.53;;;1.70;;
4001;SDS011;2015;48.670;9.060;2023-02-25T10:49:33;2.20;;;2.03;;
4001;SDS011;2015;48.670;9.060;2023-02-25T10:52:17;7.00;;;2.53;;
4001;SDS011;2015;48.670;9.060;2023-02-25T10:54:51;10.53;;;3.40;;
4001;SDS011;2015;48.670;9.060;2023-02-25T10:57:27;5.10;;;2.20;;
4001;SDS011;2015;48.670;9.060;2023-02-25T11:00:13;2.80;;;1.70;;
4001;SDS011;2015;48.670;9.060;2023-02-25T11:02:59;3.03;;;1.97;;
4001;SDS011;2015;48.670;9.060;2023-02-25T11:05:36;2.70;;;2.50;;
4001;SDS011;2015;48.670;9.060;2023-02-25T11:08:24;2.07;;;1.97;;
4001;SDS011;2015;48.670;9.060;2023-02-25T11:13:54;1.90;;;1.40;;
4001;SDS011;2015;48.670;9.060;2023-02-25T11:16:45;2.83;;;2.47;;
4001;SDS011;2015;48.670;9.060;2023-02-25T11:19:24;6.07;;;1.83;;
4001;SDS011;2015;48.670;9.060;2023-02-25T11:22:04;2.03;;;1.90;;
4001;SDS011;2015;48.670;9.060;2023-02-25T11:24:53;4.07;;;2.10;;
4001;SDS011;2015;48.670;9.060;2023-02-25T11:27:34;3.10;;;2.10;;
4001;SDS011;2015;48.670;9.060;2023-02-25T11:32:47;4.03;;;2.57;;
4001;SDS011;2015;48.670;9.060;2023-02-25T11:35:31;2.93;;;2.47;;
4001;SDS011;2015;48.670;9.060;2023-02-25T11:40:59;2.17;;;1.83;;
4001;SDS011;2015;48.670;9.060;2023-02-25T11:43:38;2.20;;;2.10;;
4001;SDS011;2015;48.670;9.060;2023-02-25T11:46:23;3.30;;;2.30;;
4001;SDS011;2015;48.670;9.060;2023-02-25T11:52:08;2.30;;;1.43;;
4001;SDS011;2015;48.670;9.060;2023-02-25T11:55:16;2.65;;;1.85;;
4001;SDS011;2015;48.670;9.060;2023-02-25T11:57:56;4.37;;;2.40;;
4001;SDS011;2015;48.670;9.060;2023-02-25T12:03:34;3.87;;;2.00;;
4001;SDS011;2015;48.670;9.060;2023-02-25T12:18:40;2.50;;;1.70;;
4001;SDS011;2015;48.670;9.060;2023-02-25T12:20:54;4.03;;;1.87;;
4001;SDS011;2015;48.670;9.060;2023-02-25T12:29:45;2.20;;;2.10;;
4001;SDS011;2015;48.670;9.060;2023-02-25T12:36:00;1.80;;;1.70;;
4001;SDS011;2015;48.670;9.060;2023-02-25T13:10:15;2.30;;;2.03;;
4001;SDS011;2015;48.670;9.060;2023-02-25T13:13:24;2.55;;;2.35;;
4001;SDS011;2015;48.670;9.060;2023-02-25T13:39:28;7.30;;;5.60;;
4001;SDS011;2015;48.670;9.060;2023-02-25T13:56:06;2.80;;;1.90;;
4001;SDS011;2015;48.670;9.060;2023-02-25T14:07:34;2.17;;;1.97;;
4001;SDS011;2015;48.670;9.060;2023-02-25T14:13:37;2.53;;;1.73;;
4001;SDS011;2015;48.670;9.060;2023-02-25T14:17:22;2.00;;;1.87;;
4001;SDS011;2015;48.670;9.060;2023-02-25T14:31:30;2.47;;;1.87;;
4001;SDS011;2015;48.670;9.060;2023-02-25T14:40:06;4.90;;;2.27;;
4001;SDS011;2015;48.670;9.060;2023-02-25T14:48:46;3.87;;;2.60;;
4001;SDS011;2015;48.670;9.060;2023-02-25T14:59:46;2.70;;;2.30;;
4001;SDS011;2015;48.670;9.060;2023-02-25T15:22:27;6.20;;;2.37;;
4001;SDS011;2015;48.670;9.060;2023-02-25T15:25:35;3.70;;;2.17;;
4001;SDS011;2015;48.670;9.060;2023-02-25T15:33:34;3.27;;;2.73;;
4001;SDS011;2015;48.670;9.060;2023-02-25T15:38:47;4.47;;;2.73;;
4001;SDS011;2015;48.670;9.060;2023-02-25T15:44:39;2.90;;;2.33;;
4001;SDS011;2015;48.670;9.060;2023-02-25T15:47:03;2.77;;;2.37;;
4001;SDS011;2015;48.670;9.060;2023-02-25T15:49:45;6.30;;;3.57;;
4001;SDS011;2015;48.670;9.060;2023-02-25T16:00:54;5.10;;;2.50;;
4001;SDS011;2015;48.670;9.060;2023-02-25T16:09:06;3.30;;;3.00;;
4001;SDS011;2015;48.670;9.060;2023-02-25T16:11:43;2.87;;;2.50;;
4001;SDS011;2015;48.670;9.060;2023-02-25T16:17:05;5.13;;;2.63;;
4001;SDS011;2015;48.670;9.060;2023-02-25T16:19:51;2.70;;;2.50;;
4001;SDS011;2015;48.670;9.060;2023-02-25T16:22:26;3.60;;;2.97;;
4001;SDS011;2015;48.670;9.060;2023-02-25T16:24:59;5.50;;;3.57;;
4001;SDS011;2015;48.670;9.060;2023-02-25T16:35:44;3.00;;;2.80;;
4001;SDS011;2015;48.670;9.060;2023-02-25T16:41:10;5.00;;;3.00;;
4001;SDS011;2015;48.670;9.060;2023-02-25T16:43:42;6.23;;;3.10;;
4001;SDS011;2015;48.670;9.060;2023-02-25T16:46:18;3.73;;;3.17;;
4001;SDS011;2015;48.670;9.060;2023-02-25T16:48:56;3.20;;;2.90;;
4001;SDS011;2015;48.670;9.060;2023-02-25T16:54:15;3.30;;;3.10;;
4001;SDS011;2015;48.670;9.060;2023-02-25T16:56:57;7.25;;;2.60;;
4001;SDS011;2015;48.670;9.060;2023-02-25T16:59:31;3.00;;;2.53;;
4001;SDS011;2015;48.670;9.060;2023-02-25T17:04:48;2.93;;;2.63;;
4001;SDS011;2015;48.670;9.060;2023-02-25T17:07:25;5.80;;;2.87;;
4001;SDS011;2015;48.670;9.060;2023-02-25T17:10:02;2.93;;;2.73;;
4001;SDS011;2015;48.670;9.060;2023-02-25T17:15:14;8.00;;;3.43;;
4001;SDS011;2015;48.670;9.060;2023-02-25T17:20:37;4.47;;;2.67;;
4001;SDS011;2015;48.670;9.060;2023-02-25T17:23:12;4.60;;;2.70;;
4001;SDS011;2015;48.670;9.060;2023-02-25T17:25:46;4.40;;;3.93;;
4001;SDS011;2015;48.670;9.060;2023-02-25T17:28:20;8.13;;;3.20;;
4001;SDS011;2015;48.670;9.060;2023-02-25T17:34:01;11.50;;;4.70;;
4001;SDS011;2015;48.670;9.060;2023-02-25T17:36:35;3.93;;;3.07;;
4001;SDS011;2015;48.670;9.060;2023-02-25T17:39:16;4.83;;;4.07;;
4001;SDS011;2015;48.670;9.060;2023-02-25T17:41:50;10.73;;;6.67;;
4001;SDS011;2015;48.670;9.060;2023-02-25T17:47:11;7.60;;;4.90;;
4001;SDS011;2015;48.670;9.060;2023-02-25T17:49:51;3.30;;;3.00;;
4001;SDS011;2015;48.670;9.060;2023-02-25T17:52:25;4.25;;;3.20;;
4001;SDS011;2015;48.670;9.060;2023-02-25T17:55:05;4.47;;;3.20;;
4001;SDS011;2015;48.670;9.060;2023-02-25T17:57:50;4.40;;;3.60;;
4001;SDS011;2015;48.670;9.060;2023-02-25T18:03:16;3.47;;;3.17;;
4001;SDS011;2015;48.670;9.060;2023-02-25T18:05:56;11.50;;;3.37;;
4001;SDS011;2015;48.670;9.060;2023-02-25T18:08:30;7.23;;;3.97;;
4001;SDS011;2015;48.670;9.060;2023-02-25T18:11:29;3.03;;;2.83;;
4001;SDS011;2015;48.670;9.060;2023-02-25T18:14:27;4.07;;;3.67;;
4001;SDS011;2015;48.670;9.060;2023-02-25T18:17:51;2.80;;;2.70;;
4001;SDS011;2015;48.670;9.060;2023-02-25T18:25:49;5.07;;;3.23;;
4001;SDS011;2015;48.670;9.060;2023-02-25T18:28:42;4.22;;;3.58;;
4001;SDS011;2015;48.670;9.060;2023-02-25T18:31:16;7.60;;;3.80;;
4001;SDS011;2015;48.670;9.060;2023-02-25T18:33:49;5.00;;;4.40;;
4001;SDS011;2015;48.670;9.060;2023-02-25T18:36:23;4.10;;;3.90;;
4001;SDS011;2015;48.670;9.060;2023-02-25T18:38:59;4.07;;;3.07;;
4001;SDS011;2015;48.670;9.060;2023-02-25T18:41:33;4.30;;;4.00;;
4001;SDS011;2015;48.670;9.060;2023-02-25T18:44:09;3.40;;;3.10;;
4001;SDS011;2015;48.670;9.060;2023-02-25T18:46:43;3.57;;;3.37;;
4001;SDS011;2015;48.670;9.060;2023-02-25T18:49:15;3.83;;;3.50;;
4001;SDS011;2015;48.670;9.060;2023-02-25T18:51:47;4.13;;;3.63;;
4001;SDS011;2015;48.670;9.060;2023-02-25T18:54:20;3.70;;;3.50;;
4001;SDS011;2015;48.670;9.060;2023-02-25T18:56:52;4.50;;;4.20;;
4001;SDS011;2015;48.670;9.060;2023-02-25T18:59:23;3.50;;;3.30;;
4001;SDS011;2015;48.670;9.060;2023-02-25T19:01:55;2.92;;;2.72;;
4001;SDS011;2015;48.670;9.060;2023-02-25T19:04:27;5.30;;;3.53;;
4001;SDS011;2015;48.670;9.060;2023-02-25T19:06:59;4.37;;;3.57;;
4001;SDS011;2015;48.670;9.060;2023-02-25T19:09:31;4.57;;;3.83;;
4001;SDS011;2015;48.670;9.060;2023-02-25T19:12:02;4.93;;;3.60;;
4001;SDS011;2015;48.670;9.060;2023-02-25T19:14:34;5.97;;;5.43;;
4001;SDS011;2015;48.670;9.060;2023-02-25T19:17:08;6.77;;;4.00;;
4001;SDS011;2015;48.670;9.060;2023-02-25T19:19:49;4.33;;;3.93;;
4001;SDS011;2015;48.670;9.060;2023-02-25T19:22:22;4.90;;;4.60;;
4001;SDS011;2015;48.670;9.060;2023-02-25T19:24:54;3.80;;;3.43;;
4001;SDS011;2015;48.670;9.060;2023-02-25T19:27:27;7.22;;;3.70;;
4001;SDS011;2015;48.670;9.060;2023-02-25T19:29:59;5.13;;;4.53;;
4001;SDS011;2015;48.670;9.060;2023-02-25T19:32:32;4.63;;;4.33;;
4001;SDS011;2015;48.670;9.060;2023-02-25T19:35:04;3.70;;;3.50;;
4001;SDS011;2015;48.670;9.060;2023-02-25T19:37:39;4.63;;;4.23;;
4001;SDS011;2015;48.670;9.060;2023-02-25T19:40:12;6.47;;;4.00;;
4001;SDS011;2015;48.670;9.060;2023-02-25T19:42:45;3.70;;;3.50;;
4001;SDS011;2015;48.670;9.060;2023-02-25T19:45:19;3.53;;;3.17;;
4001;SDS011;2015;48.670;9.060;2023-02-25T19:47:53;3.67;;;3.47;;
4001;SDS011;2015;48.670;9.060;2023-02-25T19:50:25;4.10;;;3.70;;
4001;SDS011;2015;48.670;9.060;2023-02-25T19:52:57;4.23;;;4.03;;
4001;SDS011;2015;48.670;9.060;2023-02-25T19:55:29;4.33;;;4.03;;
4001;SDS011;2015;48.670;9.060;2023-02-25T19:58:04;9.90;;;4.17;;
4001;SDS011;2015;48.670;9.060;2023-02-25T20:00:36;5.07;;;4.60;;
4001;SDS011;2015;48.670;9.060;2023-02-25T20:03:10;3.73;;;3.43;;
4001;SDS011;2015;48.670;9.060;2023-02-25T20:05:42;10.37;;;3.60;;
4001;SDS011;2015;48.670;9.060;2023-02-25T20:08:14;4.97;;;4.50;;
4001;SDS011;2015;48.670;9.060;2023-02-25T20:10:46;8.90;;;4.60;;
4001;SDS011;2015;48.670;9.060;2023-02-25T20:13:18;8.50;;;3.60;;
4001;SDS011;2015;48.670;9.060;2023-02-25T20:15:50;3.90;;;3.60;;
4001;SDS011;2015;48.670;9.060;2023-02-25T20:18:21;7.93;;;4.20;;
4001;SDS011;2015;48.670;9.060;2023-02-25T20:20:53;5.33;;;4.93;;
4001;SDS011;2015;48.670;9.060;2023-02-25T20:23:25;4.17;;;3.73;;
4001;SDS011;2015;48.670;9.060;2023-02-25T20:26:07;4.60;;;3.83;;
4001;SDS011;2015;48.670;9.060;2023-02-25T20:28:41;5.27;;;4.77;;
4001;SDS011;2015;48.670;9.060;2023-02-25T20:31:14;3.40;;;3.20;;
4001;SDS011;2015;48.670;9.060;2023-02-25T20:33:50;5.97;;;4.40;;
4001;SDS011;2015;48.670;9.060;2023-02-25T20:42:11;5.33;;;3.90;;
4001;SDS011;2015;48.670;9.060;2023-02-25T20:44:48;4.17;;;3.70;;
4001;SDS011;2015;48.670;9.060;2023-02-25T20:49:56;4.63;;;4.23;;
4001;SDS011;2015;48.670;9.060;2023-02-25T20:52:28;4.33;;;4.03;;
4001;SDS011;2015;48.670;9.060;2023-02-25T20:55:00;5.00;;;3.73;;
4001;SDS011;2015;48.670;9.060;2023-02-25T20:57:32;4.77;;;3.30;;
4001;SDS011;2015;48.670;9.060;2023-02-25T21:00:04;5.33;;;4.27;;